TimeMDT,TemperatureF,Dew PointF,Humidity,Sea Level PressureIn,VisibilityMPH,Wind Direction,Wind SpeedMPH,Gust SpeedMPH,PrecipitationIn,Events,Conditions,WindDirDegrees,DateUTC
12:53 AM,64.0,43.0,46,29.88,10.0,West,5.8,-,N/A,,Clear,280,2013-08-17 06:53:00
1:53 AM,66.0,44.1,45,29.89,10.0,NW,8.1,-,N/A,,Clear,310,2013-08-17 07:53:00
2:53 AM,63.0,44.1,50,29.89,10.0,NW,4.6,-,N/A,,Clear,320,2013-08-17 08:53:00
3:53 AM,60.1,44.1,55,29.90,10.0,West,4.6,-,N/A,,Clear,260,2013-08-17 09:53:00
4:53 AM,59.0,42.1,53,29.91,10.0,SSW,8.1,-,N/A,,Clear,210,2013-08-17 10:53:00
5:53 AM,57.0,41.0,55,29.93,10.0,SW,6.9,-,N/A,,Clear,220,2013-08-17 11:53:00
6:53 AM,57.9,42.1,56,29.95,10.0,SW,10.4,-,N/A,,Clear,230,2013-08-17 12:53:00
7:53 AM,66.9,42.1,40,29.96,10.0,SSW,9.2,-,N/A,,Clear,200,2013-08-17 13:53:00
8:53 AM,72.0,44.1,37,29.96,10.0,SSW,10.4,-,N/A,,Clear,210,2013-08-17 14:53:00
9:53 AM,78.1,43.0,29,29.96,10.0,SSW,9.2,-,N/A,,Clear,210,2013-08-17 15:53:00
10:53 AM,81.0,44.1,27,29.95,10.0,SSW,8.1,-,N/A,,Clear,200,2013-08-17 16:53:00
11:53 AM,84.9,43.0,23,29.94,10.0,SW,13.8,19.6,N/A,,Clear,220,2013-08-17 17:53:00
12:53 PM,88.0,42.1,20,29.91,10.0,SW,17.3,20.7,N/A,,Clear,220,2013-08-17 18:53:00
1:53 PM,90.0,39.9,17,29.88,10.0,SSW,13.8,17.3,N/A,,Clear,210,2013-08-17 19:53:00
2:53 PM,87.1,39.9,19,29.88,10.0,Calm,Calm,-,N/A,,Partly Cloudy,0,2013-08-17 20:53:00
3:53 PM,91.0,39.0,16,29.85,10.0,WSW,9.2,-,N/A,,Partly Cloudy,250,2013-08-17 21:53:00
4:53 PM,91.0,37.9,15,29.84,10.0,WNW,15.0,20.7,N/A,,Clear,300,2013-08-17 22:53:00
5:53 PM,89.1,37.9,16,29.84,10.0,West,11.5,-,N/A,,Clear,270,2013-08-17 23:53:00
6:53 PM,89.1,39.0,17,29.84,10.0,NW,11.5,-,N/A,,Clear,320,2013-08-18 00:53:00
7:53 PM,82.9,41.0,23,29.84,10.0,NNW,3.5,-,N/A,,Clear,340,2013-08-18 01:53:00
8:53 PM,78.1,41.0,27,29.87,10.0,North,10.4,-,N/A,,Partly Cloudy,350,2013-08-18 02:53:00
9:53 PM,72.0,39.9,31,29.89,10.0,NNE,3.5,-,N/A,,Clear,30,2013-08-18 03:53:00
10:53 PM,71.1,39.9,32,29.90,10.0,Calm,Calm,-,N/A,,Clear,0,2013-08-18 04:53:00
11:53 PM,71.1,43.0,36,29.90,10.0,West,3.5,-,0.00,Rain,Light Rain,280,2013-08-18 05:53:00